sensor_id;sensor_type;location;lat;lon;timestamp;temperature;humidity
19363;DHT22;9817;50.80926400;5.16316200;2023-01-19T00:01:29;2.30;99.90
19363;DHT22;9817;50.80926400;5.16316200;2023-01-19T00:03:55;2.40;99.90
19363;DHT22;9817;50.80926400;5.16316200;2023-01-19T00:06:21;2.40;99.90
19363;DHT22;9817;50.80926400;5.16316200;2023-01-19T00:08:46;2.40;99.90
19363;DHT22;9817;50.80926400;5.16316200;2023-01-19T00:11:14;2.40;99.90
19363;DHT22;9817;50.80926400;5.16316200;2023-01-19T00:13:42;2.30;99.90
19363;DHT22;9817;50.80926400;5.16316200;2023-01-19T00:16:14;2.30;99.90
19363;DHT22;9817;50.80926400;5.16316200;2023-01-19T00:18:42;2.30;99.90
19363;DHT22;9817;50.80926400;5.16316200;2023-01-19T00:21:07;2.50;99.90
19363;DHT22;9817;50.80926400;5.16316200;2023-01-19T00:23:33;2.50;99.90
19363;DHT22;9817;50.80926400;5.16316200;2023-01-19T00:25:58;2.20;99.90
19363;DHT22;9817;50.80926400;5.16316200;2023-01-19T00:28:24;2.10;99.90
19363;DHT22;9817;50.80926400;5.16316200;2023-01-19T00:30:50;2.10;99.90
19363;DHT22;9817;50.80926400;5.16316200;2023-01-19T00:33:16;2.10;99.90
19363;DHT22;9817;50.80926400;5.16316200;2023-01-19T00:35:42;2.30;99.90
19363;DHT22;9817;50.80926400;5.16316200;2023-01-19T00:38:10;2.30;99.90
19363;DHT22;9817;50.80926400;5.16316200;2023-01-19T00:40:36;2.40;99.90
19363;DHT22;9817;50.80926400;5.16316200;2023-01-19T00:43:01;2.30;99.90
19363;DHT22;9817;50.80926400;5.16316200;2023-01-19T00:45:28;2.20;99.90
19363;DHT22;9817;50.80926400;5.16316200;2023-01-19T00:47:54;2.20;99.90
19363;DHT22;9817;50.80926400;5.16316200;2023-01-19T00:50:22;2.20;99.90
19363;DHT22;9817;50.80926400;5.16316200;2023-01-19T00:52:48;2.10;99.90
19363;DHT22;9817;50.80926400;5.16316200;2023-01-19T00:55:15;2.00;99.90
19363;DHT22;9817;50.80926400;5.16316200;2023-01-19T00:57:41;2.20;99.90
19363;DHT22;9817;50.80926400;5.16316200;2023-01-19T01:00:17;2.10;99.90
19363;DHT22;9817;50.80926400;5.16316200;2023-01-19T01:02:47;2.10;99.90
19363;DHT22;9817;50.80926400;5.16316200;2023-01-19T01:05:13;2.20;99.90
19363;DHT22;9817;50.80926400;5.16316200;2023-01-19T01:07:39;2.20;99.90
19363;DHT22;9817;50.80926400;5.16316200;2023-01-19T01:10:14;2.10;99.90
19363;DHT22;9817;50.80926400;5.16316200;2023-01-19T01:12:40;2.10;99.90
19363;DHT22;9817;50.80926400;5.16316200;2023-01-19T01:15:07;2.10;99.90
19363;DHT22;9817;50.80926400;5.16316200;2023-01-19T01:17:33;2.10;99.90
19363;DHT22;9817;50.80926400;5.16316200;2023-01-19T01:19:59;2.20;99.90
19363;DHT22;9817;50.80926400;5.16316200;2023-01-19T01:22:25;2.20;99.90
19363;DHT22;9817;50.80926400;5.16316200;2023-01-19T01:24:50;2.30;99.90
19363;DHT22;9817;50.80926400;5.16316200;2023-01-19T01:27:16;2.30;99.90
19363;DHT22;9817;50.80926400;5.16316200;2023-01-19T01:29:42;2.30;99.90
19363;DHT22;9817;50.80926400;5.16316200;2023-01-19T01:32:11;2.50;99.90
19363;DHT22;9817;50.80926400;5.16316200;2023-01-19T01:34:37;2.30;99.90
19363;DHT22;9817;50.80926400;5.16316200;2023-01-19T01:37:03;2.20;99.90
19363;DHT22;9817;50.80926400;5.16316200;2023-01-19T01:39:28;2.30;99.90
19363;DHT22;9817;50.80926400;5.16316200;2023-01-19T01:41:54;2.60;99.90
19363;DHT22;9817;50.80926400;5.16316200;2023-01-19T01:44:48;2.60;99.90
19363;DHT22;9817;50.80926400;5.16316200;2023-01-19T01:47:36;2.70;99.90
19363;DHT22;9817;50.80926400;5.16316200;2023-01-19T01:50:14;2.70;99.90
19363;DHT22;9817;50.80926400;5.16316200;2023-01-19T01:52:58;2.70;99.90
19363;DHT22;9817;50.80926400;5.16316200;2023-01-19T01:55:26;2.70;99.90
19363;DHT22;9817;50.80926400;5.16316200;2023-01-19T01:57:55;2.40;99.90
19363;DHT22;9817;50.80926400;5.16316200;2023-01-19T02:00:23;2.40;99.90
19363;DHT22;9817;50.80926400;5.16316200;2023-01-19T02:02:49;2.50;99.90
19363;DHT22;9817;50.80926400;5.16316200;2023-01-19T02:05:25;2.40;99.90
19363;DHT22;9817;50.80926400;5.16316200;2023-01-19T02:07:56;2.40;99.90
19363;DHT22;9817;50.80926400;5.16316200;2023-01-19T02:10:43;2.40;99.90
19363;DHT22;9817;50.80926400;5.16316200;2023-01-19T02:13:33;2.30;99.90
19363;DHT22;9817;50.80926400;5.16316200;2023-01-19T02:16:02;2.30;99.90
19363;DHT22;9817;50.80926400;5.16316200;2023-01-19T02:18:31;2.20;99.90
19363;DHT22;9817;50.80926400;5.16316200;2023-01-19T02:23:49;2.50;99.90
19363;DHT22;9817;50.80926400;5.16316200;2023-01-19T02:26:22;2.40;99.90
19363;DHT22;9817;50.80926400;5.16316200;2023-01-19T02:28:55;2.40;99.90
19363;DHT22;9817;50.80926400;5.16316200;2023-01-19T02:31:22;2.30;99.90
19363;DHT22;9817;50.80926400;5.16316200;2023-01-19T02:33:49;2.30;99.90
19363;DHT22;9817;50.80926400;5.16316200;2023-01-19T02:36:16;2.40;99.90
19363;DHT22;9817;50.80926400;5.16316200;2023-01-19T02:38:44;2.40;99.90
19363;DHT22;9817;50.80926400;5.16316200;2023-01-19T02:41:15;2.30;99.90
19363;DHT22;9817;50.80926400;5.16316200;2023-01-19T02:43:42;2.50;99.90
19363;DHT22;9817;50.80926400;5.16316200;2023-01-19T02:46:08;2.50;99.90
19363;DHT22;9817;50.80926400;5.16316200;2023-01-19T02:48:33;2.40;99.90
19363;DHT22;9817;50.80926400;5.16316200;2023-01-19T02:51:02;2.40;99.90
19363;DHT22;9817;50.80926400;5.16316200;2023-01-19T02:53:46;2.30;99.90
19363;DHT22;9817;50.80926400;5.16316200;2023-01-19T03:02:05;2.10;99.90
19363;DHT22;9817;50.80926400;5.16316200;2023-01-19T03:07:23;2.20;99.90
19363;DHT22;9817;50.80926400;5.16316200;2023-01-19T03:10:03;2.20;99.90
19363;DHT22;9817;50.80926400;5.16316200;2023-01-19T03:12:35;2.30;99.90
19363;DHT22;9817;50.80926400;5.16316200;2023-01-19T03:15:14;2.20;99.90
19363;DHT22;9817;50.80926400;5.16316200;2023-01-19T03:17:44;2.20;99.90
19363;DHT22;9817;50.80926400;5.16316200;2023-01-19T03:20:16;2.20;99.90
19363;DHT22;9817;50.80926400;5.16316200;2023-01-19T03:22:44;2.20;99.90
19363;DHT22;9817;50.80926400;5.16316200;2023-01-19T03:25:13;2.30;99.90
19363;DHT22;9817;50.80926400;5.16316200;2023-01-19T03:27:41;2.10;99.90
19363;DHT22;9817;50.80926400;5.16316200;2023-01-19T03:30:14;2.00;99.90
19363;DHT22;9817;50.80926400;5.16316200;2023-01-19T03:32:47;2.10;99.90
19363;DHT22;9817;50.80926400;5.16316200;2023-01-19T03:35:16;2.20;99.90
19363;DHT22;9817;50.80926400;5.16316200;2023-01-19T03:37:44;2.10;99.90
19363;DHT22;9817;50.80926400;5.16316200;2023-01-19T03:40:12;2.20;99.90
19363;DHT22;9817;50.80926400;5.16316200;2023-01-19T03:42:39;2.10;99.90
19363;DHT22;9817;50.80926400;5.16316200;2023-01-19T03:45:06;2.10;99.90
19363;DHT22;9817;50.80926400;5.16316200;2023-01-19T03:47:34;2.30;99.90
19363;DHT22;9817;50.80926400;5.16316200;2023-01-19T03:50:02;2.20;99.90
19363;DHT22;9817;50.80926400;5.16316200;2023-01-19T03:52:31;2.00;99.90
19363;DHT22;9817;50.80926400;5.16316200;2023-01-19T03:55:02;2.10;99.90
19363;DHT22;9817;50.80926400;5.16316200;2023-01-19T03:57:29;2.10;99.90
19363;DHT22;9817;50.80926400;5.16316200;2023-01-19T03:59:55;2.30;99.90
19363;DHT22;9817;50.80926400;5.16316200;2023-01-19T04:02:21;2.40;99.90
19363;DHT22;9817;50.80926400;5.16316200;2023-01-19T04:04:47;2.50;99.90
19363;DHT22;9817;50.80926400;5.16316200;2023-01-19T04:07:13;2.40;99.90
19363;DHT22;9817;50.80926400;5.16316200;2023-01-19T04:09:38;2.40;99.90
19363;DHT22;9817;50.80926400;5.16316200;2023-01-19T04:12:04;2.40;99.90
19363;DHT22;9817;50.80926400;5.16316200;2023-01-19T04:14:30;2.50;99.90
19363;DHT22;9817;50.80926400;5.16316200;2023-01-19T04:16:55;2.60;99.90
19363;DHT22;9817;50.80926400;5.16316200;2023-01-19T04:19:21;2.60;99.90
19363;DHT22;9817;50.80926400;5.16316200;2023-01-19T04:21:50;2.60;99.90
19363;DHT22;9817;50.80926400;5.16316200;2023-01-19T04:24:16;2.60;99.90
19363;DHT22;9817;50.80926400;5.16316200;2023-01-19T04:26:42;2.60;99.90
19363;DHT22;9817;50.80926400;5.16316200;2023-01-19T04:29:08;2.70;99.90
19363;DHT22;9817;50.80926400;5.16316200;2023-01-19T04:31:34;2.70;99.90
19363;DHT22;9817;50.80926400;5.16316200;2023-01-19T04:34:01;2.50;99.90
19363;DHT22;9817;50.80926400;5.16316200;2023-01-19T04:36:27;2.60;99.90
19363;DHT22;9817;50.80926400;5.16316200;2023-01-19T04:38:53;2.70;99.90
19363;DHT22;9817;50.80926400;5.16316200;2023-01-19T04:41:19;2.60;99.90
19363;DHT22;9817;50.80926400;5.16316200;2023-01-19T04:43:44;2.60;99.90
19363;DHT22;9817;50.80926400;5.16316200;2023-01-19T04:46:12;2.60;99.90
19363;DHT22;9817;50.80926400;5.16316200;2023-01-19T04:48:38;2.70;99.90
19363;DHT22;9817;50.80926400;5.16316200;2023-01-19T04:51:03;2.70;99.90
19363;DHT22;9817;50.80926400;5.16316200;2023-01-19T04:53:29;2.70;99.90
19363;DHT22;9817;50.80926400;5.16316200;2023-01-19T04:55:55;2.70;99.90
19363;DHT22;9817;50.80926400;5.16316200;2023-01-19T04:58:20;2.60;99.90
19363;DHT22;9817;50.80926400;5.16316200;2023-01-19T05:00:46;2.60;99.90
19363;DHT22;9817;50.80926400;5.16316200;2023-01-19T05:03:12;2.60;99.90
19363;DHT22;9817;50.80926400;5.16316200;2023-01-19T05:05:38;2.60;99.90
19363;DHT22;9817;50.80926400;5.16316200;2023-01-19T05:08:03;2.60;99.90
19363;DHT22;9817;50.80926400;5.16316200;2023-01-19T05:10:29;2.70;99.90
19363;DHT22;9817;50.80926400;5.16316200;2023-01-19T05:12:55;2.60;99.90
19363;DHT22;9817;50.80926400;5.16316200;2023-01-19T05:15:21;2.70;99.90
19363;DHT22;9817;50.80926400;5.16316200;2023-01-19T05:17:47;2.70;99.90
19363;DHT22;9817;50.80926400;5.16316200;2023-01-19T05:20:13;2.70;99.90
19363;DHT22;9817;50.80926400;5.16316200;2023-01-19T05:22:38;2.60;99.90
19363;DHT22;9817;50.80926400;5.16316200;2023-01-19T05:25:06;2.70;99.90
19363;DHT22;9817;50.80926400;5.16316200;2023-01-19T05:27:33;2.70;99.90
19363;DHT22;9817;50.80926400;5.16316200;2023-01-19T05:29:58;2.70;99.90
19363;DHT22;9817;50.80926400;5.16316200;2023-01-19T05:32:24;2.70;99.90
19363;DHT22;9817;50.80926400;5.16316200;2023-01-19T05:34:50;2.80;99.90
19363;DHT22;9817;50.80926400;5.16316200;2023-01-19T05:37:15;2.70;99.90
19363;DHT22;9817;50.80926400;5.16316200;2023-01-19T05:39:41;2.70;99.90
19363;DHT22;9817;50.80926400;5.16316200;2023-01-19T05:42:06;2.60;99.90
19363;DHT22;9817;50.80926400;5.16316200;2023-01-19T05:44:32;2.60;99.90
19363;DHT22;9817;50.80926400;5.16316200;2023-01-19T05:46:58;2.80;99.90
19363;DHT22;9817;50.80926400;5.16316200;2023-01-19T05:49:23;2.80;99.90
19363;DHT22;9817;50.80926400;5.16316200;2023-01-19T05:51:49;2.80;99.90
19363;DHT22;9817;50.80926400;5.16316200;2023-01-19T05:54:14;2.80;99.90
19363;DHT22;9817;50.80926400;5.16316200;2023-01-19T05:56:41;2.80;99.90
19363;DHT22;9817;50.80926400;5.16316200;2023-01-19T05:59:06;2.80;99.90
19363;DHT22;9817;50.80926400;5.16316200;2023-01-19T06:01:32;2.80;99.90
19363;DHT22;9817;50.80926400;5.16316200;2023-01-19T06:03:59;2.70;99.90
19363;DHT22;9817;50.80926400;5.16316200;2023-01-19T06:06:25;2.60;99.90
19363;DHT22;9817;50.80926400;5.16316200;2023-01-19T06:08:51;2.70;99.90
19363;DHT22;9817;50.80926400;5.16316200;2023-01-19T06:11:16;2.90;99.90
19363;DHT22;9817;50.80926400;5.16316200;2023-01-19T06:13:42;2.70;99.90
19363;DHT22;9817;50.80926400;5.16316200;2023-01-19T06:16:08;2.70;99.90
19363;DHT22;9817;50.80926400;5.16316200;2023-01-19T06:18:34;2.70;99.90
19363;DHT22;9817;50.80926400;5.16316200;2023-01-19T06:21:06;2.80;99.90
19363;DHT22;9817;50.80926400;5.16316200;2023-01-19T06:23:34;2.70;99.90
19363;DHT22;9817;50.80926400;5.16316200;2023-01-19T06:26:00;2.70;99.90
19363;DHT22;9817;50.80926400;5.16316200;2023-01-19T06:28:27;2.80;99.90
19363;DHT22;9817;50.80926400;5.16316200;2023-01-19T06:30:54;2.70;99.90
19363;DHT22;9817;50.80926400;5.16316200;2023-01-19T06:33:21;2.60;99.90
19363;DHT22;9817;50.80926400;5.16316200;2023-01-19T06:35:48;2.70;99.90
19363;DHT22;9817;50.80926400;5.16316200;2023-01-19T06:38:14;2.60;99.90
19363;DHT22;9817;50.80926400;5.16316200;2023-01-19T06:40:41;2.50;99.90
19363;DHT22;9817;50.80926400;5.16316200;2023-01-19T06:43:07;2.40;99.90
19363;DHT22;9817;50.80926400;5.16316200;2023-01-19T06:45:33;2.40;99.90
19363;DHT22;9817;50.80926400;5.16316200;2023-01-19T06:47:59;2.40;99.90
19363;DHT22;9817;50.80926400;5.16316200;2023-01-19T06:50:25;2.50;99.90
19363;DHT22;9817;50.80926400;5.16316200;2023-01-19T06:52:51;2.50;99.90
19363;DHT22;9817;50.80926400;5.16316200;2023-01-19T06:55:17;2.60;99.90
19363;DHT22;9817;50.80926400;5.16316200;2023-01-19T06:57:42;2.40;99.90
19363;DHT22;9817;50.80926400;5.16316200;2023-01-19T07:00:10;2.50;99.90
19363;DHT22;9817;50.80926400;5.16316200;2023-01-19T07:02:39;2.40;99.90
19363;DHT22;9817;50.80926400;5.16316200;2023-01-19T07:05:07;2.50;99.90
19363;DHT22;9817;50.80926400;5.16316200;2023-01-19T07:07:34;2.50;99.90
19363;DHT22;9817;50.80926400;5.16316200;2023-01-19T07:09:59;2.50;99.90
19363;DHT22;9817;50.80926400;5.16316200;2023-01-19T07:12:25;2.40;99.90
19363;DHT22;9817;50.80926400;5.16316200;2023-01-19T07:14:51;2.30;99.90
19363;DHT22;9817;50.80926400;5.16316200;2023-01-19T07:17:17;2.20;99.90
19363;DHT22;9817;50.80926400;5.16316200;2023-01-19T07:19:44;2.30;99.90
19363;DHT22;9817;50.80926400;5.16316200;2023-01-19T07:22:09;2.20;99.90
19363;DHT22;9817;50.80926400;5.16316200;2023-01-19T07:24:35;2.20;99.90
19363;DHT22;9817;50.80926400;5.16316200;2023-01-19T07:27:02;2.30;99.90
19363;DHT22;9817;50.80926400;5.16316200;2023-01-19T07:29:29;2.30;99.90
19363;DHT22;9817;50.80926400;5.16316200;2023-01-19T07:31:54;2.20;99.90
19363;DHT22;9817;50.80926400;5.16316200;2023-01-19T07:34:20;2.20;99.90
19363;DHT22;9817;50.80926400;5.16316200;2023-01-19T07:36:46;2.20;99.90
19363;DHT22;9817;50.80926400;5.16316200;2023-01-19T07:39:12;2.10;99.90
19363;DHT22;9817;50.80926400;5.16316200;2023-01-19T07:41:38;2.20;99.90
19363;DHT22;9817;50.80926400;5.16316200;2023-01-19T07:44:03;2.30;99.90
19363;DHT22;9817;50.80926400;5.16316200;2023-01-19T07:46:29;2.20;99.90
19363;DHT22;9817;50.80926400;5.16316200;2023-01-19T07:48:55;2.20;99.90
19363;DHT22;9817;50.80926400;5.16316200;2023-01-19T07:51:20;2.10;99.90
19363;DHT22;9817;50.80926400;5.16316200;2023-01-19T07:53:49;2.00;99.90
19363;DHT22;9817;50.80926400;5.16316200;2023-01-19T07:56:15;2.00;99.90
19363;DHT22;9817;50.80926400;5.16316200;2023-01-19T07:58:41;1.90;99.90
19363;DHT22;9817;50.80926400;5.16316200;2023-01-19T08:01:08;2.00;99.90
19363;DHT22;9817;50.80926400;5.16316200;2023-01-19T08:03:34;2.10;99.90
19363;DHT22;9817;50.80926400;5.16316200;2023-01-19T08:06:00;2.20;99.90
19363;DHT22;9817;50.80926400;5.16316200;2023-01-19T08:08:28;2.10;99.90
19363;DHT22;9817;50.80926400;5.16316200;2023-01-19T08:10:54;2.10;99.90
19363;DHT22;9817;50.80926400;5.16316200;2023-01-19T08:13:19;2.20;99.90
19363;DHT22;9817;50.80926400;5.16316200;2023-01-19T08:15:48;2.30;99.90
19363;DHT22;9817;50.80926400;5.16316200;2023-01-19T08:18:15;2.30;99.90
19363;DHT22;9817;50.80926400;5.16316200;2023-01-19T08:20:40;2.40;99.90
19363;DHT22;9817;50.80926400;5.16316200;2023-01-19T08:23:06;2.50;99.90
19363;DHT22;9817;50.80926400;5.16316200;2023-01-19T08:27:59;2.30;99.90
19363;DHT22;9817;50.80926400;5.16316200;2023-01-19T08:30:24;2.40;99.90
19363;DHT22;9817;50.80926400;5.16316200;2023-01-19T08:32:52;2.60;99.90
19363;DHT22;9817;50.80926400;5.16316200;2023-01-19T08:35:19;2.60;99.90
19363;DHT22;9817;50.80926400;5.16316200;2023-01-19T08:37:44;2.60;99.90
19363;DHT22;9817;50.80926400;5.16316200;2023-01-19T08:40:11;2.80;99.90
19363;DHT22;9817;50.80926400;5.16316200;2023-01-19T08:42:36;2.90;99.90
19363;DHT22;9817;50.80926400;5.16316200;2023-01-19T08:45:02;2.80;99.90
19363;DHT22;9817;50.80926400;5.16316200;2023-01-19T08:47:28;2.90;99.90
19363;DHT22;9817;50.80926400;5.16316200;2023-01-19T08:49:54;3.20;99.90
19363;DHT22;9817;50.80926400;5.16316200;2023-01-19T08:52:19;3.20;99.90
19363;DHT22;9817;50.80926400;5.16316200;2023-01-19T08:54:45;3.20;99.90
19363;DHT22;9817;50.80926400;5.16316200;2023-01-19T08:57:11;3.40;99.90
19363;DHT22;9817;50.80926400;5.16316200;2023-01-19T08:59:36;3.50;99.90
19363;DHT22;9817;50.80926400;5.16316200;2023-01-19T09:02:02;3.70;99.90
19363;DHT22;9817;50.80926400;5.16316200;2023-01-19T09:04:28;3.80;99.90
19363;DHT22;9817;50.80926400;5.16316200;2023-01-19T09:06:53;3.70;99.90
19363;DHT22;9817;50.80926400;5.16316200;2023-01-19T09:09:19;3.80;99.90
19363;DHT22;9817;50.80926400;5.16316200;2023-01-19T09:11:45;3.90;99.90
19363;DHT22;9817;50.80926400;5.16316200;2023-01-19T09:14:10;3.90;99.90
19363;DHT22;9817;50.80926400;5.16316200;2023-01-19T09:16:36;3.80;99.90
19363;DHT22;9817;50.80926400;5.16316200;2023-01-19T09:19:01;3.90;99.90
19363;DHT22;9817;50.80926400;5.16316200;2023-01-19T09:21:27;3.80;99.90
19363;DHT22;9817;50.80926400;5.16316200;2023-01-19T09:23:55;3.60;99.90
19363;DHT22;9817;50.80926400;5.16316200;2023-01-19T09:26:20;3.60;99.90
19363;DHT22;9817;50.80926400;5.16316200;2023-01-19T09:28:47;3.50;99.90
19363;DHT22;9817;50.80926400;5.16316200;2023-01-19T09:31:13;3.90;99.90
19363;DHT22;9817;50.80926400;5.16316200;2023-01-19T09:33:39;4.10;99.90
19363;DHT22;9817;50.80926400;5.16316200;2023-01-19T09:36:05;4.30;99.90
19363;DHT22;9817;50.80926400;5.16316200;2023-01-19T09:38:31;4.50;99.90
19363;DHT22;9817;50.80926400;5.16316200;2023-01-19T09:40:59;4.60;99.90
19363;DHT22;9817;50.80926400;5.16316200;2023-01-19T09:43:50;4.40;99.90
19363;DHT22;9817;50.80926400;5.16316200;2023-01-19T09:48:59;4.40;99.90
19363;DHT22;9817;50.80926400;5.16316200;2023-01-19T09:51:35;4.30;99.90
19363;DHT22;9817;50.80926400;5.16316200;2023-01-19T09:54:22;4.40;99.90
19363;DHT22;9817;50.80926400;5.16316200;2023-01-19T09:56:52;4.50;99.90
19363;DHT22;9817;50.80926400;5.16316200;2023-01-19T09:59:25;4.60;99.90
19363;DHT22;9817;50.80926400;5.16316200;2023-01-19T10:07:35;4.30;99.90
19363;DHT22;9817;50.80926400;5.16316200;2023-01-19T10:12:38;4.20;99.90
19363;DHT22;9817;50.80926400;5.16316200;2023-01-19T10:20:26;4.40;99.90
19363;DHT22;9817;50.80926400;5.16316200;2023-01-19T10:22:53;4.50;99.90
19363;DHT22;9817;50.80926400;5.16316200;2023-01-19T10:25:21;4.50;99.90
19363;DHT22;9817;50.80926400;5.16316200;2023-01-19T10:27:48;4.40;99.90
19363;DHT22;9817;50.80926400;5.16316200;2023-01-19T10:30:26;4.40;99.90
19363;DHT22;9817;50.80926400;5.16316200;2023-01-19T10:32:53;4.30;99.90
19363;DHT22;9817;50.80926400;5.16316200;2023-01-19T10:35:23;4.50;99.90
19363;DHT22;9817;50.80926400;5.16316200;2023-01-19T10:37:55;4.40;99.90
19363;DHT22;9817;50.80926400;5.16316200;2023-01-19T10:40:32;4.40;99.90
19363;DHT22;9817;50.80926400;5.16316200;2023-01-19T10:42:59;4.40;99.90
19363;DHT22;9817;50.80926400;5.16316200;2023-01-19T10:45:27;4.40;99.90
19363;DHT22;9817;50.80926400;5.16316200;2023-01-19T10:47:58;4.50;99.90
19363;DHT22;9817;50.80926400;5.16316200;2023-01-19T10:50:33;4.40;99.90
19363;DHT22;9817;50.80926400;5.16316200;2023-01-19T10:53:01;4.40;99.90
19363;DHT22;9817;50.80926400;5.16316200;2023-01-19T10:55:34;4.60;99.90
19363;DHT22;9817;50.80926400;5.16316200;2023-01-19T10:58:03;4.60;99.90
19363;DHT22;9817;50.80926400;5.16316200;2023-01-19T11:00:33;4.60;99.90
19363;DHT22;9817;50.80926400;5.16316200;2023-01-19T11:02:59;4.70;99.90
19363;DHT22;9817;50.80926400;5.16316200;2023-01-19T11:05:27;4.80;99.90
19363;DHT22;9817;50.80926400;5.16316200;2023-01-19T11:07:53;4.60;99.90
19363;DHT22;9817;50.80926400;5.16316200;2023-01-19T11:10:26;4.70;99.90
19363;DHT22;9817;50.80926400;5.16316200;2023-01-19T11:13:05;4.70;99.90
19363;DHT22;9817;50.80926400;5.16316200;2023-01-19T11:15:45;4.70;99.90
19363;DHT22;9817;50.80926400;5.16316200;2023-01-19T11:18:38;4.70;99.90
19363;DHT22;9817;50.80926400;5.16316200;2023-01-19T11:21:07;4.80;99.90
19363;DHT22;9817;50.80926400;5.16316200;2023-01-19T11:23:39;4.80;99.90
19363;DHT22;9817;50.80926400;5.16316200;2023-01-19T11:26:45;4.80;99.90
19363;DHT22;9817;50.80926400;5.16316200;2023-01-19T11:29:22;4.90;99.90
19363;DHT22;9817;50.80926400;5.16316200;2023-01-19T11:31:49;4.70;99.90
19363;DHT22;9817;50.80926400;5.16316200;2023-01-19T11:34:22;4.60;99.90
19363;DHT22;9817;50.80926400;5.16316200;2023-01-19T11:37:00;4.60;99.90
19363;DHT22;9817;50.80926400;5.16316200;2023-01-19T11:39:28;4.60;99.90
19363;DHT22;9817;50.80926400;5.16316200;2023-01-19T11:42:02;4.60;99.90
19363;DHT22;9817;50.80926400;5.16316200;2023-01-19T11:44:34;4.90;99.90
19363;DHT22;9817;50.80926400;5.16316200;2023-01-19T11:47:05;5.00;99.90
19363;DHT22;9817;50.80926400;5.16316200;2023-01-19T11:55:12;5.00;99.90
19363;DHT22;9817;50.80926400;5.16316200;2023-01-19T11:57:46;4.80;99.90
19363;DHT22;9817;50.80926400;5.16316200;2023-01-19T12:00:35;4.60;99.90
19363;DHT22;9817;50.80926400;5.16316200;2023-01-19T12:03:29;4.50;99.90
19363;DHT22;9817;50.80926400;5.16316200;2023-01-19T12:08:34;4.50;99.90
19363;DHT22;9817;50.80926400;5.16316200;2023-01-19T12:11:02;4.60;99.90
19363;DHT22;9817;50.80926400;5.16316200;2023-01-19T12:13:28;4.70;99.90
19363;DHT22;9817;50.80926400;5.16316200;2023-01-19T12:16:06;4.80;99.90
19363;DHT22;9817;50.80926400;5.16316200;2023-01-19T12:18:40;4.90;99.90
19363;DHT22;9817;50.80926400;5.16316200;2023-01-19T12:21:06;5.00;99.90
19363;DHT22;9817;50.80926400;5.16316200;2023-01-19T12:26:07;5.10;99.90
19363;DHT22;9817;50.80926400;5.16316200;2023-01-19T12:28:42;5.40;99.90
19363;DHT22;9817;50.80926400;5.16316200;2023-01-19T12:31:08;5.50;99.90
19363;DHT22;9817;50.80926400;5.16316200;2023-01-19T12:38:47;5.80;99.90
19363;DHT22;9817;50.80926400;5.16316200;2023-01-19T12:41:19;5.70;99.90
19363;DHT22;9817;50.80926400;5.16316200;2023-01-19T12:43:47;5.90;99.90
19363;DHT22;9817;50.80926400;5.16316200;2023-01-19T12:46:28;5.90;99.90
19363;DHT22;9817;50.80926400;5.16316200;2023-01-19T12:48:55;5.90;99.90
19363;DHT22;9817;50.80926400;5.16316200;2023-01-19T12:51:27;6.10;99.90
19363;DHT22;9817;50.80926400;5.16316200;2023-01-19T12:53:55;6.30;99.90
19363;DHT22;9817;50.80926400;5.16316200;2023-01-19T12:56:30;6.40;99.90
19363;DHT22;9817;50.80926400;5.16316200;2023-01-19T12:58:56;6.50;99.90
19363;DHT22;9817;50.80926400;5.16316200;2023-01-19T13:01:22;6.70;99.90
19363;DHT22;9817;50.80926400;5.16316200;2023-01-19T13:04:17;6.70;99.90
19363;DHT22;9817;50.80926400;5.16316200;2023-01-19T13:09:33;6.50;99.90
19363;DHT22;9817;50.80926400;5.16316200;2023-01-19T13:14:43;6.50;99.90
19363;DHT22;9817;50.80926400;5.16316200;2023-01-19T13:17:32;6.60;99.90
19363;DHT22;9817;50.80926400;5.16316200;2023-01-19T13:20:25;6.60;99.90
19363;DHT22;9817;50.80926400;5.16316200;2023-01-19T13:23:15;6.60;99.90
19363;DHT22;9817;50.80926400;5.16316200;2023-01-19T13:25:44;6.80;99.90
19363;DHT22;9817;50.80926400;5.16316200;2023-01-19T13:28:13;6.90;99.90
19363;DHT22;9817;50.80926400;5.16316200;2023-01-19T13:30:53;6.70;99.90
19363;DHT22;9817;50.80926400;5.16316200;2023-01-19T13:33:22;6.50;99.90
19363;DHT22;9817;50.80926400;5.16316200;2023-01-19T13:35:54;6.40;99.90
19363;DHT22;9817;50.80926400;5.16316200;2023-01-19T13:38:21;6.10;99.90
19363;DHT22;9817;50.80926400;5.16316200;2023-01-19T13:40:47;5.90;99.90
19363;DHT22;9817;50.80926400;5.16316200;2023-01-19T13:43:35;6.00;99.90
19363;DHT22;9817;50.80926400;5.16316200;2023-01-19T13:46:02;6.20;99.90
19363;DHT22;9817;50.80926400;5.16316200;2023-01-19T13:48:30;6.20;99.90
19363;DHT22;9817;50.80926400;5.16316200;2023-01-19T13:51:02;6.30;99.90
19363;DHT22;9817;50.80926400;5.16316200;2023-01-19T13:53:28;6.30;99.90
19363;DHT22;9817;50.80926400;5.16316200;2023-01-19T13:56:11;6.40;99.90
19363;DHT22;9817;50.80926400;5.16316200;2023-01-19T13:58:40;6.30;99.90
19363;DHT22;9817;50.80926400;5.16316200;2023-01-19T14:01:05;6.40;99.90
19363;DHT22;9817;50.80926400;5.16316200;2023-01-19T14:03:32;6.30;99.90
19363;DHT22;9817;50.80926400;5.16316200;2023-01-19T14:05:58;6.20;99.90
19363;DHT22;9817;50.80926400;5.16316200;2023-01-19T14:08:23;6.10;99.90
19363;DHT22;9817;50.80926400;5.16316200;2023-01-19T14:13:26;5.80;99.90
19363;DHT22;9817;50.80926400;5.16316200;2023-01-19T14:15:59;5.70;99.90
19363;DHT22;9817;50.80926400;5.16316200;2023-01-19T14:18:28;5.80;99.90
19363;DHT22;9817;50.80926400;5.16316200;2023-01-19T14:37:18;6.00;99.90
19363;DHT22;9817;50.80926400;5.16316200;2023-01-19T14:39:51;6.10;99.90
19363;DHT22;9817;50.80926400;5.16316200;2023-01-19T14:44:52;5.80;99.90
19363;DHT22;9817;50.80926400;5.16316200;2023-01-19T14:47:35;5.70;99.90
19363;DHT22;9817;50.80926400;5.16316200;2023-01-19T14:50:07;5.70;99.90
19363;DHT22;9817;50.80926400;5.16316200;2023-01-19T14:52:38;5.80;99.90
19363;DHT22;9817;50.80926400;5.16316200;2023-01-19T14:55:15;5.90;99.90
19363;DHT22;9817;50.80926400;5.16316200;2023-01-19T14:57:41;5.80;99.90
19363;DHT22;9817;50.80926400;5.16316200;2023-01-19T15:00:17;5.80;99.90
19363;DHT22;9817;50.80926400;5.16316200;2023-01-19T15:02:45;5.90;99.90
19363;DHT22;9817;50.80926400;5.16316200;2023-01-19T15:05:10;5.80;99.90
19363;DHT22;9817;50.80926400;5.16316200;2023-01-19T15:07:41;5.80;99.90
19363;DHT22;9817;50.80926400;5.16316200;2023-01-19T15:10:19;5.80;99.90